GMFO/OUD METAR and TAF weather

Enter ICAO airport designator
Station Type Date Time Source
GMFO METAR 2018/12/12 05:00 UTC NOAA

GMFO 120500Z 17007KT 160V240 9999 FEW010 SCT230 07/07 Q1023 NOSIG


Station Type Date Time Source
GMFO Decoded METAR 2018/12/12 05:00 UTC NOAA

Oujda, Morocco (GMFO) 34-47N 001-56W 470M
Dec 12, 2018 - 12:00 AM EST / 2018.12.12 0500 UTC
Wind: from the S (170 degrees) at 8 MPH (7 KT) (direction variable):0
Visibility: greater than 7 mile(s):0
Sky conditions: partly cloudy
Temperature: 44 F (7 C)
Dew Point: 44 F (7 C)
Relative Humidity: 100%
Pressure (altimeter): 30.21 in. Hg (1023 hPa)
ob: GMFO 120500Z 17007KT 160V240 9999 FEW010 SCT230 07/07 Q1023 NOSIG
cycle: 5

Station Type Date Time Source
GMFO TAF 2018/12/11 18:18 UTC NOAA

TAF GMFO 111700Z 1118/1224 33012KT 6000 FEW023 SCT233 PROB30
TEMPO 1122/1207 20006KT 3000 BR BKN006
BECMG 1214/1218 34016KT 9999 FEW026 SCT233


Example: see airport list